sensor_id;sensor_type;location;lat;lon;timestamp;P1;durP1;ratioP1;P2;durP2;ratioP2
15528;SDS011;7866;52.280;9.500;2022-09-09T00:03:08;1.23;;;1.00;;
15528;SDS011;7866;52.280;9.500;2022-09-09T00:08:19;0.77;;;0.77;;
15528;SDS011;7866;52.280;9.500;2022-09-09T00:13:25;1.00;;;0.70;;
15528;SDS011;7866;52.280;9.500;2022-09-09T00:18:31;1.95;;;0.80;;
15528;SDS011;7866;52.280;9.500;2022-09-09T00:23:50;1.40;;;0.68;;
15528;SDS011;7866;52.280;9.500;2022-09-09T00:28:55;1.20;;;0.98;;
15528;SDS011;7866;52.280;9.500;2022-09-09T00:34:08;2.95;;;0.90;;
15528;SDS011;7866;52.280;9.500;2022-09-09T00:39:23;1.25;;;0.90;;
15528;SDS011;7866;52.280;9.500;2022-09-09T00:44:31;1.20;;;0.70;;
15528;SDS011;7866;52.280;9.500;2022-09-09T00:49:38;0.93;;;0.77;;
15528;SDS011;7866;52.280;9.500;2022-09-09T00:54:51;1.50;;;0.93;;
15528;SDS011;7866;52.280;9.500;2022-09-09T01:00:16;1.45;;;0.75;;
15528;SDS011;7866;52.280;9.500;2022-09-09T01:05:20;1.58;;;0.65;;
15528;SDS011;7866;52.280;9.500;2022-09-09T01:10:31;1.58;;;0.52;;
15528;SDS011;7866;52.280;9.500;2022-09-09T01:15:41;1.73;;;0.90;;
15528;SDS011;7866;52.280;9.500;2022-09-09T01:20:47;0.77;;;0.70;;
15528;SDS011;7866;52.280;9.500;2022-09-09T01:26:07;1.13;;;0.63;;
15528;SDS011;7866;52.280;9.500;2022-09-09T01:31:15;1.63;;;0.65;;
15528;SDS011;7866;52.280;9.500;2022-09-09T01:36:23;0.73;;;0.70;;
15528;SDS011;7866;52.280;9.500;2022-09-09T01:41:32;1.42;;;0.80;;
15528;SDS011;7866;52.280;9.500;2022-09-09T01:46:34;1.10;;;0.70;;
15528;SDS011;7866;52.280;9.500;2022-09-09T01:51:36;1.27;;;0.70;;
15528;SDS011;7866;52.280;9.500;2022-09-09T01:56:44;0.90;;;0.65;;
15528;SDS011;7866;52.280;9.500;2022-09-09T02:01:58;2.40;;;1.20;;
15528;SDS011;7866;52.280;9.500;2022-09-09T02:07:20;0.57;;;0.57;;
15528;SDS011;7866;52.280;9.500;2022-09-09T02:12:34;2.05;;;0.75;;
15528;SDS011;7866;52.280;9.500;2022-09-09T02:17:40;0.82;;;0.65;;
15528;SDS011;7866;52.280;9.500;2022-09-09T02:22:43;1.75;;;0.60;;
15528;SDS011;7866;52.280;9.500;2022-09-09T02:27:51;1.88;;;0.55;;
15528;SDS011;7866;52.280;9.500;2022-09-09T02:32:53;0.50;;;0.47;;
15528;SDS011;7866;52.280;9.500;2022-09-09T02:37:58;1.58;;;0.80;;
15528;SDS011;7866;52.280;9.500;2022-09-09T02:43:04;1.15;;;0.57;;
15528;SDS011;7866;52.280;9.500;2022-09-09T02:48:08;1.65;;;0.93;;
15528;SDS011;7866;52.280;9.500;2022-09-09T02:53:16;4.20;;;0.90;;
15528;SDS011;7866;52.280;9.500;2022-09-09T02:58:22;0.85;;;0.75;;
15528;SDS011;7866;52.280;9.500;2022-09-09T03:03:24;1.23;;;0.63;;
15528;SDS011;7866;52.280;9.500;2022-09-09T03:08:27;1.50;;;0.95;;
15528;SDS011;7866;52.280;9.500;2022-09-09T03:13:30;4.03;;;1.10;;
15528;SDS011;7866;52.280;9.500;2022-09-09T03:18:31;1.95;;;0.95;;
15528;SDS011;7866;52.280;9.500;2022-09-09T03:23:34;1.67;;;1.00;;
15528;SDS011;7866;52.280;9.500;2022-09-09T03:28:37;1.88;;;0.90;;
15528;SDS011;7866;52.280;9.500;2022-09-09T03:33:39;1.52;;;1.02;;
15528;SDS011;7866;52.280;9.500;2022-09-09T03:38:41;1.48;;;0.90;;
15528;SDS011;7866;52.280;9.500;2022-09-09T03:43:44;2.72;;;1.20;;
15528;SDS011;7866;52.280;9.500;2022-09-09T03:48:46;2.30;;;1.05;;
15528;SDS011;7866;52.280;9.500;2022-09-09T03:53:48;1.75;;;1.00;;
15528;SDS011;7866;52.280;9.500;2022-09-09T03:58:51;2.55;;;0.90;;
15528;SDS011;7866;52.280;9.500;2022-09-09T04:03:52;1.48;;;0.90;;
15528;SDS011;7866;52.280;9.500;2022-09-09T04:08:58;1.55;;;0.90;;
15528;SDS011;7866;52.280;9.500;2022-09-09T04:14:01;3.38;;;1.33;;
15528;SDS011;7866;52.280;9.500;2022-09-09T04:19:02;1.25;;;0.80;;
15528;SDS011;7866;52.280;9.500;2022-09-09T04:24:06;1.15;;;1.05;;
15528;SDS011;7866;52.280;9.500;2022-09-09T04:29:09;2.58;;;1.10;;
15528;SDS011;7866;52.280;9.500;2022-09-09T04:34:11;2.13;;;1.00;;
15528;SDS011;7866;52.280;9.500;2022-09-09T04:39:12;1.67;;;1.00;;
15528;SDS011;7866;52.280;9.500;2022-09-09T04:44:15;1.88;;;1.27;;
15528;SDS011;7866;52.280;9.500;2022-09-09T04:49:17;1.70;;;1.17;;
15528;SDS011;7866;52.280;9.500;2022-09-09T04:54:19;2.50;;;1.23;;
15528;SDS011;7866;52.280;9.500;2022-09-09T04:59:22;4.00;;;1.30;;
15528;SDS011;7866;52.280;9.500;2022-09-09T05:04:24;2.28;;;1.00;;
15528;SDS011;7866;52.280;9.500;2022-09-09T05:09:26;2.05;;;1.17;;
15528;SDS011;7866;52.280;9.500;2022-09-09T05:14:29;1.20;;;0.90;;
15528;SDS011;7866;52.280;9.500;2022-09-09T05:19:31;2.17;;;1.00;;
15528;SDS011;7866;52.280;9.500;2022-09-09T05:24:32;2.42;;;1.10;;
15528;SDS011;7866;52.280;9.500;2022-09-09T05:29:35;2.10;;;0.93;;
15528;SDS011;7866;52.280;9.500;2022-09-09T05:34:37;1.73;;;1.00;;
15528;SDS011;7866;52.280;9.500;2022-09-09T05:39:39;0.93;;;0.88;;
15528;SDS011;7866;52.280;9.500;2022-09-09T05:44:42;1.73;;;1.10;;
15528;SDS011;7866;52.280;9.500;2022-09-09T05:49:44;1.45;;;1.05;;
15528;SDS011;7866;52.280;9.500;2022-09-09T05:54:46;1.45;;;1.30;;
15528;SDS011;7866;52.280;9.500;2022-09-09T05:59:50;1.83;;;1.10;;
15528;SDS011;7866;52.280;9.500;2022-09-09T06:04:51;3.00;;;2.35;;
15528;SDS011;7866;52.280;9.500;2022-09-09T06:09:53;2.28;;;1.48;;
15528;SDS011;7866;52.280;9.500;2022-09-09T06:14:57;2.15;;;1.23;;
15528;SDS011;7866;52.280;9.500;2022-09-09T06:20:00;2.17;;;1.20;;
15528;SDS011;7866;52.280;9.500;2022-09-09T06:25:04;1.98;;;1.40;;
15528;SDS011;7866;52.280;9.500;2022-09-09T06:30:09;2.33;;;1.17;;
15528;SDS011;7866;52.280;9.500;2022-09-09T06:35:11;2.33;;;1.08;;
15528;SDS011;7866;52.280;9.500;2022-09-09T06:40:13;1.55;;;1.00;;
15528;SDS011;7866;52.280;9.500;2022-09-09T06:45:16;3.25;;;1.27;;
15528;SDS011;7866;52.280;9.500;2022-09-09T06:50:18;6.20;;;1.50;;
15528;SDS011;7866;52.280;9.500;2022-09-09T06:55:20;2.20;;;1.20;;
15528;SDS011;7866;52.280;9.500;2022-09-09T07:00:23;2.70;;;1.40;;
15528;SDS011;7866;52.280;9.500;2022-09-09T07:05:25;2.92;;;1.20;;
15528;SDS011;7866;52.280;9.500;2022-09-09T07:10:27;3.22;;;1.27;;
15528;SDS011;7866;52.280;9.500;2022-09-09T07:15:30;1.65;;;1.00;;
15528;SDS011;7866;52.280;9.500;2022-09-09T07:20:33;1.73;;;1.27;;
15528;SDS011;7866;52.280;9.500;2022-09-09T07:25:35;1.90;;;1.10;;
15528;SDS011;7866;52.280;9.500;2022-09-09T07:30:38;2.75;;;1.10;;
15528;SDS011;7866;52.280;9.500;2022-09-09T07:35:40;2.15;;;1.20;;
15528;SDS011;7866;52.280;9.500;2022-09-09T07:40:41;1.63;;;1.00;;
15528;SDS011;7866;52.280;9.500;2022-09-09T07:45:45;1.95;;;1.13;;
15528;SDS011;7866;52.280;9.500;2022-09-09T07:50:47;3.03;;;1.27;;
15528;SDS011;7866;52.280;9.500;2022-09-09T07:55:48;2.50;;;1.52;;
15528;SDS011;7866;52.280;9.500;2022-09-09T08:00:51;3.13;;;1.20;;
15528;SDS011;7866;52.280;9.500;2022-09-09T08:05:53;2.38;;;1.20;;
15528;SDS011;7866;52.280;9.500;2022-09-09T08:11:03;4.25;;;1.48;;
15528;SDS011;7866;52.280;9.500;2022-09-09T08:16:10;3.17;;;1.40;;
15528;SDS011;7866;52.280;9.500;2022-09-09T08:21:14;3.38;;;1.15;;
15528;SDS011;7866;52.280;9.500;2022-09-09T08:26:18;3.10;;;1.30;;
15528;SDS011;7866;52.280;9.500;2022-09-09T08:31:25;5.03;;;1.35;;
15528;SDS011;7866;52.280;9.500;2022-09-09T08:36:29;1.73;;;1.20;;
15528;SDS011;7866;52.280;9.500;2022-09-09T08:47:03;1.63;;;1.00;;
15528;SDS011;7866;52.280;9.500;2022-09-09T08:52:13;4.82;;;2.05;;
15528;SDS011;7866;52.280;9.500;2022-09-09T08:57:19;3.28;;;1.08;;
15528;SDS011;7866;52.280;9.500;2022-09-09T09:02:30;2.95;;;1.17;;
15528;SDS011;7866;52.280;9.500;2022-09-09T09:07:47;3.25;;;1.40;;
15528;SDS011;7866;52.280;9.500;2022-09-09T09:12:58;3.30;;;1.02;;
15528;SDS011;7866;52.280;9.500;2022-09-09T09:18:03;2.45;;;1.30;;
15528;SDS011;7866;52.280;9.500;2022-09-09T09:23:05;2.55;;;1.27;;
15528;SDS011;7866;52.280;9.500;2022-09-09T09:28:12;3.17;;;1.63;;
15528;SDS011;7866;52.280;9.500;2022-09-09T09:33:20;2.75;;;1.02;;
15528;SDS011;7866;52.280;9.500;2022-09-09T09:38:26;3.55;;;1.25;;
15528;SDS011;7866;52.280;9.500;2022-09-09T09:43:30;3.30;;;1.23;;
15528;SDS011;7866;52.280;9.500;2022-09-09T09:48:34;3.92;;;1.27;;
15528;SDS011;7866;52.280;9.500;2022-09-09T09:53:36;2.83;;;1.35;;
15528;SDS011;7866;52.280;9.500;2022-09-09T09:58:47;2.85;;;1.27;;
15528;SDS011;7866;52.280;9.500;2022-09-09T10:03:53;2.20;;;1.00;;
15528;SDS011;7866;52.280;9.500;2022-09-09T10:08:58;2.70;;;1.10;;
15528;SDS011;7866;52.280;9.500;2022-09-09T10:14:02;2.58;;;1.15;;
15528;SDS011;7866;52.280;9.500;2022-09-09T10:19:16;2.53;;;1.05;;
15528;SDS011;7866;52.280;9.500;2022-09-09T10:24:34;3.33;;;1.30;;
15528;SDS011;7866;52.280;9.500;2022-09-09T10:30:04;3.65;;;1.90;;
15528;SDS011;7866;52.280;9.500;2022-09-09T10:35:17;5.68;;;1.23;;
15528;SDS011;7866;52.280;9.500;2022-09-09T10:40:28;1.50;;;0.98;;
15528;SDS011;7866;52.280;9.500;2022-09-09T10:45:36;2.17;;;1.02;;
15528;SDS011;7866;52.280;9.500;2022-09-09T10:50:52;1.60;;;1.00;;
15528;SDS011;7866;52.280;9.500;2022-09-09T10:56:01;2.22;;;0.98;;
15528;SDS011;7866;52.280;9.500;2022-09-09T11:01:10;2.03;;;1.15;;
15528;SDS011;7866;52.280;9.500;2022-09-09T11:06:19;2.42;;;1.00;;
15528;SDS011;7866;52.280;9.500;2022-09-09T11:11:25;2.70;;;1.20;;
15528;SDS011;7866;52.280;9.500;2022-09-09T11:16:32;5.45;;;1.38;;
15528;SDS011;7866;52.280;9.500;2022-09-09T11:21:43;2.42;;;1.02;;
15528;SDS011;7866;52.280;9.500;2022-09-09T11:26:47;0.80;;;0.68;;
15528;SDS011;7866;52.280;9.500;2022-09-09T11:31:57;1.48;;;0.90;;
15528;SDS011;7866;52.280;9.500;2022-09-09T11:37:19;2.67;;;0.60;;
15528;SDS011;7866;52.280;9.500;2022-09-09T11:42:38;1.08;;;0.75;;
15528;SDS011;7866;52.280;9.500;2022-09-09T11:47:39;1.63;;;1.13;;
15528;SDS011;7866;52.280;9.500;2022-09-09T11:53:02;4.05;;;1.60;;
15528;SDS011;7866;52.280;9.500;2022-09-09T11:58:14;1.90;;;1.00;;
15528;SDS011;7866;52.280;9.500;2022-09-09T12:03:34;1.48;;;0.85;;
15528;SDS011;7866;52.280;9.500;2022-09-09T12:08:45;3.33;;;1.05;;
15528;SDS011;7866;52.280;9.500;2022-09-09T12:13:52;2.10;;;0.70;;
15528;SDS011;7866;52.280;9.500;2022-09-09T12:19:02;2.63;;;0.90;;
15528;SDS011;7866;52.280;9.500;2022-09-09T12:24:07;1.60;;;0.75;;
15528;SDS011;7866;52.280;9.500;2022-09-09T12:29:13;3.20;;;1.00;;
15528;SDS011;7866;52.280;9.500;2022-09-09T12:34:28;2.00;;;0.90;;
15528;SDS011;7866;52.280;9.500;2022-09-09T12:39:38;3.35;;;0.80;;
15528;SDS011;7866;52.280;9.500;2022-09-09T12:44:52;2.67;;;0.70;;
15528;SDS011;7866;52.280;9.500;2022-09-09T12:49:55;1.17;;;0.80;;
15528;SDS011;7866;52.280;9.500;2022-09-09T12:54:59;3.75;;;0.70;;
15528;SDS011;7866;52.280;9.500;2022-09-09T13:00:04;3.45;;;0.73;;
15528;SDS011;7866;52.280;9.500;2022-09-09T13:05:13;3.15;;;0.80;;
15528;SDS011;7866;52.280;9.500;2022-09-09T13:10:22;1.63;;;0.75;;
15528;SDS011;7866;52.280;9.500;2022-09-09T13:15:28;1.33;;;0.75;;
15528;SDS011;7866;52.280;9.500;2022-09-09T13:20:30;1.45;;;0.65;;
15528;SDS011;7866;52.280;9.500;2022-09-09T13:25:34;3.20;;;0.80;;
15528;SDS011;7866;52.280;9.500;2022-09-09T13:30:36;2.28;;;0.82;;
15528;SDS011;7866;52.280;9.500;2022-09-09T13:35:45;1.80;;;0.80;;
15528;SDS011;7866;52.280;9.500;2022-09-09T13:40:53;2.53;;;0.88;;
15528;SDS011;7866;52.280;9.500;2022-09-09T13:45:58;2.72;;;0.98;;
15528;SDS011;7866;52.280;9.500;2022-09-09T13:51:01;2.65;;;0.90;;
15528;SDS011;7866;52.280;9.500;2022-09-09T13:56:07;0.93;;;0.57;;
15528;SDS011;7866;52.280;9.500;2022-09-09T14:01:09;4.82;;;1.17;;
15528;SDS011;7866;52.280;9.500;2022-09-09T14:06:11;2.47;;;0.82;;
15528;SDS011;7866;52.280;9.500;2022-09-09T14:11:15;1.60;;;0.77;;
15528;SDS011;7866;52.280;9.500;2022-09-09T14:16:17;1.83;;;0.73;;
15528;SDS011;7866;52.280;9.500;2022-09-09T14:21:19;1.38;;;0.95;;
15528;SDS011;7866;52.280;9.500;2022-09-09T14:26:23;2.88;;;0.93;;
15528;SDS011;7866;52.280;9.500;2022-09-09T14:31:25;0.93;;;0.65;;
15528;SDS011;7866;52.280;9.500;2022-09-09T14:36:26;1.20;;;0.70;;
15528;SDS011;7866;52.280;9.500;2022-09-09T14:41:29;1.52;;;0.90;;
15528;SDS011;7866;52.280;9.500;2022-09-09T14:46:31;2.40;;;0.80;;
15528;SDS011;7866;52.280;9.500;2022-09-09T14:51:33;2.45;;;0.90;;
15528;SDS011;7866;52.280;9.500;2022-09-09T14:56:36;0.82;;;0.50;;
15528;SDS011;7866;52.280;9.500;2022-09-09T15:01:38;1.38;;;0.75;;
15528;SDS011;7866;52.280;9.500;2022-09-09T15:06:40;3.90;;;1.17;;
15528;SDS011;7866;52.280;9.500;2022-09-09T15:11:45;3.47;;;0.80;;
15528;SDS011;7866;52.280;9.500;2022-09-09T15:16:47;2.30;;;0.80;;
15528;SDS011;7866;52.280;9.500;2022-09-09T15:21:48;1.33;;;0.57;;
15528;SDS011;7866;52.280;9.500;2022-09-09T15:26:51;3.60;;;1.08;;
15528;SDS011;7866;52.280;9.500;2022-09-09T15:31:54;0.80;;;0.65;;
15528;SDS011;7866;52.280;9.500;2022-09-09T15:36:56;2.00;;;1.02;;
15528;SDS011;7866;52.280;9.500;2022-09-09T15:42:01;2.15;;;0.90;;
15528;SDS011;7866;52.280;9.500;2022-09-09T15:47:03;2.45;;;0.98;;
15528;SDS011;7866;52.280;9.500;2022-09-09T15:52:04;0.90;;;0.77;;
15528;SDS011;7866;52.280;9.500;2022-09-09T15:57:09;1.90;;;1.05;;
15528;SDS011;7866;52.280;9.500;2022-09-09T16:02:13;1.98;;;0.88;;
15528;SDS011;7866;52.280;9.500;2022-09-09T16:07:15;2.72;;;0.82;;
15528;SDS011;7866;52.280;9.500;2022-09-09T16:12:18;1.65;;;0.88;;
15528;SDS011;7866;52.280;9.500;2022-09-09T16:17:19;0.95;;;0.93;;
15528;SDS011;7866;52.280;9.500;2022-09-09T16:22:21;0.70;;;0.65;;
15528;SDS011;7866;52.280;9.500;2022-09-09T16:27:25;2.70;;;0.90;;
15528;SDS011;7866;52.280;9.500;2022-09-09T16:32:26;1.45;;;0.70;;
15528;SDS011;7866;52.280;9.500;2022-09-09T16:37:28;1.88;;;0.77;;
15528;SDS011;7866;52.280;9.500;2022-09-09T16:42:32;2.05;;;0.70;;
15528;SDS011;7866;52.280;9.500;2022-09-09T16:47:34;2.92;;;0.90;;
15528;SDS011;7866;52.280;9.500;2022-09-09T16:52:36;2.60;;;1.20;;
15528;SDS011;7866;52.280;9.500;2022-09-09T16:57:39;6.28;;;1.30;;
15528;SDS011;7866;52.280;9.500;2022-09-09T17:02:41;2.13;;;0.85;;
15528;SDS011;7866;52.280;9.500;2022-09-09T17:07:43;0.77;;;0.68;;
15528;SDS011;7866;52.280;9.500;2022-09-09T17:12:46;7.35;;;1.60;;
15528;SDS011;7866;52.280;9.500;2022-09-09T17:17:48;3.38;;;1.45;;
15528;SDS011;7866;52.280;9.500;2022-09-09T17:22:53;3.47;;;1.10;;
15528;SDS011;7866;52.280;9.500;2022-09-09T17:27:56;1.85;;;0.98;;
15528;SDS011;7866;52.280;9.500;2022-09-09T17:32:58;3.15;;;1.15;;
15528;SDS011;7866;52.280;9.500;2022-09-09T17:38:00;4.50;;;1.20;;
15528;SDS011;7866;52.280;9.500;2022-09-09T17:43:03;2.10;;;0.73;;
15528;SDS011;7866;52.280;9.500;2022-09-09T17:48:05;1.27;;;0.90;;
15528;SDS011;7866;52.280;9.500;2022-09-09T17:53:06;3.30;;;1.30;;
15528;SDS011;7866;52.280;9.500;2022-09-09T17:58:09;1.08;;;0.80;;
15528;SDS011;7866;52.280;9.500;2022-09-09T18:03:11;1.23;;;0.90;;
15528;SDS011;7866;52.280;9.500;2022-09-09T18:08:13;3.42;;;0.90;;
15528;SDS011;7866;52.280;9.500;2022-09-09T18:13:16;1.95;;;1.10;;
15528;SDS011;7866;52.280;9.500;2022-09-09T18:18:17;1.77;;;0.63;;
15528;SDS011;7866;52.280;9.500;2022-09-09T18:23:19;1.92;;;0.80;;
15528;SDS011;7866;52.280;9.500;2022-09-09T18:28:22;1.20;;;0.70;;
15528;SDS011;7866;52.280;9.500;2022-09-09T18:33:24;3.20;;;1.00;;
15528;SDS011;7866;52.280;9.500;2022-09-09T18:38:26;3.63;;;0.85;;
15528;SDS011;7866;52.280;9.500;2022-09-09T18:43:29;1.45;;;1.02;;
15528;SDS011;7866;52.280;9.500;2022-09-09T18:48:31;2.13;;;0.90;;
15528;SDS011;7866;52.280;9.500;2022-09-09T18:53:34;1.75;;;0.40;;
15528;SDS011;7866;52.280;9.500;2022-09-09T18:58:37;4.18;;;1.00;;
15528;SDS011;7866;52.280;9.500;2022-09-09T19:03:41;1.45;;;0.80;;
15528;SDS011;7866;52.280;9.500;2022-09-09T19:08:44;2.97;;;0.98;;
15528;SDS011;7866;52.280;9.500;2022-09-09T19:13:50;2.80;;;0.95;;
15528;SDS011;7866;52.280;9.500;2022-09-09T19:18:52;1.38;;;0.57;;
15528;SDS011;7866;52.280;9.500;2022-09-09T19:23:55;0.65;;;0.50;;
15528;SDS011;7866;52.280;9.500;2022-09-09T19:29:00;0.85;;;0.43;;
15528;SDS011;7866;52.280;9.500;2022-09-09T19:34:02;0.95;;;0.70;;
15528;SDS011;7866;52.280;9.500;2022-09-09T19:39:04;0.40;;;0.38;;
15528;SDS011;7866;52.280;9.500;2022-09-09T19:44:09;0.70;;;0.30;;
15528;SDS011;7866;52.280;9.500;2022-09-09T19:49:13;1.25;;;0.60;;
15528;SDS011;7866;52.280;9.500;2022-09-09T19:54:15;0.80;;;0.47;;
15528;SDS011;7866;52.280;9.500;2022-09-09T19:59:18;3.92;;;0.80;;
15528;SDS011;7866;52.280;9.500;2022-09-09T20:04:20;1.92;;;1.17;;
15528;SDS011;7866;52.280;9.500;2022-09-09T20:09:21;1.88;;;0.75;;
15528;SDS011;7866;52.280;9.500;2022-09-09T20:14:26;0.95;;;0.32;;
15528;SDS011;7866;52.280;9.500;2022-09-09T20:19:28;0.60;;;0.57;;
15528;SDS011;7866;52.280;9.500;2022-09-09T20:24:30;1.75;;;0.65;;
15528;SDS011;7866;52.280;9.500;2022-09-09T20:29:34;0.63;;;0.50;;
15528;SDS011;7866;52.280;9.500;2022-09-09T20:34:36;0.90;;;0.47;;
15528;SDS011;7866;52.280;9.500;2022-09-09T20:39:38;0.77;;;0.38;;
15528;SDS011;7866;52.280;9.500;2022-09-09T20:44:41;0.95;;;0.47;;
15528;SDS011;7866;52.280;9.500;2022-09-09T20:49:42;1.67;;;0.50;;
15528;SDS011;7866;52.280;9.500;2022-09-09T20:54:44;0.30;;;0.30;;
15528;SDS011;7866;52.280;9.500;2022-09-09T20:59:48;0.63;;;0.30;;
15528;SDS011;7866;52.280;9.500;2022-09-09T21:04:50;0.28;;;0.28;;
15528;SDS011;7866;52.280;9.500;2022-09-09T21:09:51;0.82;;;0.30;;
15528;SDS011;7866;52.280;9.500;2022-09-09T21:14:57;0.40;;;0.35;;
15528;SDS011;7866;52.280;9.500;2022-09-09T21:20:00;0.73;;;0.52;;
15528;SDS011;7866;52.280;9.500;2022-09-09T21:25:02;0.47;;;0.20;;
15528;SDS011;7866;52.280;9.500;2022-09-09T21:30:07;1.45;;;0.40;;
15528;SDS011;7866;52.280;9.500;2022-09-09T21:35:10;0.38;;;0.38;;
15528;SDS011;7866;52.280;9.500;2022-09-09T21:40:12;0.80;;;0.40;;
15528;SDS011;7866;52.280;9.500;2022-09-09T21:45:15;0.50;;;0.50;;
15528;SDS011;7866;52.280;9.500;2022-09-09T21:50:18;1.67;;;0.40;;
15528;SDS011;7866;52.280;9.500;2022-09-09T21:55:21;0.60;;;0.35;;
15528;SDS011;7866;52.280;9.500;2022-09-09T22:00:24;0.47;;;0.47;;
15528;SDS011;7866;52.280;9.500;2022-09-09T22:05:26;0.52;;;0.52;;
15528;SDS011;7866;52.280;9.500;2022-09-09T22:10:29;0.88;;;0.43;;
15528;SDS011;7866;52.280;9.500;2022-09-09T22:15:32;0.75;;;0.57;;
15528;SDS011;7866;52.280;9.500;2022-09-09T22:20:38;1.08;;;0.60;;
15528;SDS011;7866;52.280;9.500;2022-09-09T22:25:41;1.58;;;0.63;;
15528;SDS011;7866;52.280;9.500;2022-09-09T22:30:45;2.05;;;0.40;;
15528;SDS011;7866;52.280;9.500;2022-09-09T22:35:46;0.95;;;0.50;;
15528;SDS011;7866;52.280;9.500;2022-09-09T22:40:48;1.30;;;0.55;;
15528;SDS011;7866;52.280;9.500;2022-09-09T22:45:52;1.58;;;0.70;;
15528;SDS011;7866;52.280;9.500;2022-09-09T22:50:59;1.52;;;0.60;;
15528;SDS011;7866;52.280;9.500;2022-09-09T22:56:03;0.45;;;0.45;;
15528;SDS011;7866;52.280;9.500;2022-09-09T23:01:09;0.40;;;0.40;;
15528;SDS011;7866;52.280;9.500;2022-09-09T23:06:14;1.73;;;0.70;;
15528;SDS011;7866;52.280;9.500;2022-09-09T23:11:19;1.85;;;0.50;;
15528;SDS011;7866;52.280;9.500;2022-09-09T23:16:23;0.93;;;0.50;;
15528;SDS011;7866;52.280;9.500;2022-09-09T23:21:26;0.50;;;0.50;;
15528;SDS011;7866;52.280;9.500;2022-09-09T23:26:29;1.05;;;0.57;;
15528;SDS011;7866;52.280;9.500;2022-09-09T23:31:33;1.15;;;0.50;;
15528;SDS011;7866;52.280;9.500;2022-09-09T23:36:36;0.98;;;0.63;;
15528;SDS011;7866;52.280;9.500;2022-09-09T23:41:38;0.47;;;0.40;;
15528;SDS011;7866;52.280;9.500;2022-09-09T23:46:41;2.55;;;0.60;;
15528;SDS011;7866;52.280;9.500;2022-09-09T23:51:43;1.15;;;0.73;;
15528;SDS011;7866;52.280;9.500;2022-09-09T23:56:48;0.80;;;0.80;;
